Address 0xc771d5f34285deb13d0d4734c7ee77bcf9542571

 
Txn Hash
Block
From
To
Value [Txn Fee]
0xc5dcf1dc1cb941d01d317727ddb4b97d5f3045bb53248dc4f8fa39d6a3c4228683177912021-06-15 12:05:565 days 22 hrs ago0xc771d5f34285deb13d0d4734c7ee77bcf9542571OUT PancakeSwap: Router v20.008 BNB0.000982735
0x6fc53f61bfd703057bc97fb3bcaf3c28d68fb0cc55863376bd7af3ba382401b583173242021-06-15 11:42:265 days 22 hrs ago0xc771d5f34285deb13d0d4734c7ee77bcf9542571OUT PancakeSwap: Router v20.044074275 BNB0.000596825
0xa74c24d16f0821d7595f6698cedde130fdcb498a50b33708d947467b495777f683172542021-06-15 11:38:565 days 22 hrs agoBinance: Hot Wallet 5 IN 0xc771d5f34285deb13d0d4734c7ee77bcf95425710.0537 BNB0.00021
0x15ccf54c868979af07eb153f0635088b684d4994ce25361b10ba1acd464e05a183150832021-06-15 9:46:526 days 29 mins ago0xc771d5f34285deb13d0d4734c7ee77bcf9542571OUT 0x1d7f64a6566b38c26c075bd7463597fcd8d80e170 BNB0.00094268
0xd56b10a04ecf53bf282f7a56ed5365e552622d22a48bf7049302afdfff5d530581975122021-06-11 6:55:4110 days 3 hrs ago0xc771d5f34285deb13d0d4734c7ee77bcf9542571OUT PancakeSwap: Router v20.006 BNB0.00059845
0x7a5a7d176d8098e2d8f1e5aa1993b5705bfbe629775e0ddd191ebc005cb4a8c481972662021-06-11 6:43:2310 days 3 hrs ago0xc771d5f34285deb13d0d4734c7ee77bcf9542571OUT 0xa202bcf4afe788232d83c18f4d46f30f2c4e67be0 BNB0.000113275
0xea65aba9b66c4419bf0638db0c2331515760a847253bad4feaaae0483cdc31f981972632021-06-11 6:43:1410 days 3 hrs ago0xc771d5f34285deb13d0d4734c7ee77bcf9542571OUT 0xa202bcf4afe788232d83c18f4d46f30f2c4e67be0 BNB0.00092041
0x2b4af9396f505a0b83ce4c1be2d9d53a3314fadd4f383e30fc1305c899e98a5581971922021-06-11 6:39:4110 days 3 hrs ago0xc771d5f34285deb13d0d4734c7ee77bcf9542571OUT 0xa1fd12820f0c1c492dd87f8a0d12043d8f24f8a60 BNB0.000378325
0xfd34d4aad3f2fa71cbe512385b242ff687d70e91f6ef8c56a9a4374970c237c981968312021-06-11 6:21:3810 days 3 hrs ago0xc771d5f34285deb13d0d4734c7ee77bcf9542571OUT PancakeSwap: Router v20.018236942213375 BNB0.000672585
0xe692ea149b7925cea8305fa6b0eaef47297d66a4fb049f35b1c85d4d0da5930781965982021-06-11 6:09:5910 days 4 hrs ago0x7347c8c0af373fa11cb495c578dca84f591de0e7 IN 0xc771d5f34285deb13d0d4734c7ee77bcf95425710.02800649 BNB0.000105
0x07a18af60f7f28066b393317d35c51dd199c5e21b7de2183c22dcd3b9d12d6e980980152021-06-07 19:45:0413 days 14 hrs ago0xc771d5f34285deb13d0d4734c7ee77bcf9542571OUT Tutti Frutti: TFF Token0 BNB0.0000728
0x5821ba930943f84c5dc13516157c19b80637eec38eef2ad67084c7e0eef5b43f73503812021-05-12 15:51:3839 days 18 hrs ago0xc771d5f34285deb13d0d4734c7ee77bcf9542571OUT PancakeSwap: Router v20.0035 BNB0.001000685
0x4d7d5ba2f45706e03c6413d45faf5df2b46484009f6213b6971ef5cf4f89333673479102021-05-12 13:34:2239 days 20 hrs ago0xe4524912259ff264316ca065c6eb50d1891599a8 IN 0xc771d5f34285deb13d0d4734c7ee77bcf95425710.003043475625927 BNB0.000126
0xfdb00b89765896c852af4884645e1b7e9709b59a25d41918148826de787d909b72655462021-05-09 8:58:2543 days 1 hr ago0xc771d5f34285deb13d0d4734c7ee77bcf9542571OUT PancakeSwap: Router v20.0025 BNB0.000905355
0x7a673bb01d23412089fde4994e14073f3e380867ea7ef8b93c7961a47a84fff072651212021-05-09 8:36:4043 days 1 hr ago0xc771d5f34285deb13d0d4734c7ee77bcf9542571OUT0xd53eada1acea01b39bc515948dc5bdf19190eeba0.003077558168665 BNB0.000105
0xb07723db4f48afe5a2bd15a50fe7ba37a15e45c6b84d36b62e09b3a7ed94cb7172482542021-05-08 17:55:1743 days 16 hrs ago0xd53eada1acea01b39bc515948dc5bdf19190eeba IN 0xc771d5f34285deb13d0d4734c7ee77bcf95425710.001541172056537 BNB0.000105
0xd93ed9503c4115026a141bacf3bc95a6d85d9a8d3a0c15f4338d052dfbeaa87072449502021-05-08 14:52:4143 days 19 hrs ago0xc771d5f34285deb13d0d4734c7ee77bcf9542571OUT0xd53eada1acea01b39bc515948dc5bdf19190eeba0.001559082300423 BNB0.000105
0x51594d135f2b65da4d043ceebabb467969cb74f65224283d33be956524ad34a972215462021-05-07 18:58:4644 days 15 hrs ago0xc771d5f34285deb13d0d4734c7ee77bcf9542571OUT 0x554e44deb162585a7234fd53e682192e66c422800 BNB0.000679345
0xc2aec8f45b22a0347908595dee4c7aca0f1d1d4a3146473efa0a381174e1983072215332021-05-07 18:58:0744 days 15 hrs ago0xc771d5f34285deb13d0d4734c7ee77bcf9542571OUT Tutti Frutti: TFF Token0 BNB0.000222275
0xaffb9c26a03bef7989b0f38bcbfe92c3caa803607fb8fea8b43d31ed027be41b72212012021-05-07 18:41:3144 days 15 hrs ago0xc771d5f34285deb13d0d4734c7ee77bcf9542571OUT Just Liquidity: Router0.002703687688318 BNB0.000627095
0x838723a4d4ab758cc4fea358fe9780c58b4dc679f263666d4fc3340554f188d372210822021-05-07 18:35:3444 days 15 hrs ago0xc771d5f34285deb13d0d4734c7ee77bcf9542571OUT 0x5e7bc83cfc3b2e5897cbae3fb1c520d96594ee430.002 BNB0.00083126
0x801c9a24acc1735158feef8fb8e35a51334a66c580e453283e0dad841e89015a72203822021-05-07 17:59:1844 days 16 hrs ago0xc771d5f34285deb13d0d4734c7ee77bcf9542571OUT0xe4524912259ff264316ca065c6eb50d1891599a80.015650198926104 BNB0.000105
0x5200a544eba80c3cb7fcb7fa10859452bdf484cc2db8d63addee7cded40b60ba72202562021-05-07 17:53:0044 days 16 hrs ago0x924ca38f80af2659114954d70bd7252886a4f054 IN 0xc771d5f34285deb13d0d4734c7ee77bcf95425710.031290146614422 BNB0.000105
[ Download CSV Export 
Parent Txn Hash Block From To Value
Loading

Contract Name:
0 BNB

Compiler Version
0

Optimization Enabled:
0 BNB

Other Settings:
-NA-
Block Transaction Gas Used Reward
Age Block Fee Address BC Fee Address Voting Power Jailed Incoming
Block Uncle Number Difficulty Gas Used Reward
Loading
Loading
Make sure to use the "Vote Down" button for any spammy posts, and the "Vote Up" for interesting conversations.